Time;durP1;ratioP1;P1;durP2;ratioP2;P2;SDS_P1;SDS_P2;PMS_P1;PMS_P2;Temp;Humidity;BMP_temperature;BMP_pressure;BME280_temperature;BME280_humidity;BME280_pressure;Samples;Min_cycle;Max_cycle;Signal;HPM_P1;HPM_P2
2022/05/25 00:01:33;;;;;;;2.10;1.10;;;13.50;85.20;;;;;;4989045;28;20107;-83
2022/05/25 00:04:00;;;;;;;1.63;0.98;;;13.40;85.20;;;;;;4985424;28;20041;-82
2022/05/25 00:06:26;;;;;;;1.45;0.90;;;13.40;85.30;;;;;;5015839;28;20102;-82
2022/05/25 00:08:52;;;;;;;1.20;1.00;;;13.40;85.40;;;;;;5030502;28;20474;-82
2022/05/25 00:11:19;;;;;;;1.30;0.90;;;13.40;85.40;;;;;;4995366;28;20281;-82
2022/05/25 00:13:45;;;;;;;1.20;0.90;;;13.30;85.30;;;;;;5006261;28;20025;-82
2022/05/25 00:16:11;;;;;;;1.60;1.00;;;13.30;85.30;;;;;;4995636;28;20042;-82
2022/05/25 00:18:37;;;;;;;0.93;0.83;;;13.20;85.20;;;;;;5000370;28;20037;-82
2022/05/25 00:21:03;;;;;;;1.45;0.90;;;13.20;85.20;;;;;;4992265;28;20151;-82
2022/05/25 00:23:28;;;;;;;1.10;0.80;;;13.20;85.20;;;;;;5002155;28;20083;-82
2022/05/25 00:25:55;;;;;;;1.03;0.80;;;13.20;85.30;;;;;;4993269;28;20062;-82
2022/05/25 00:28:20;;;;;;;1.13;0.70;;;13.20;85.30;;;;;;4966677;28;20033;-82
2022/05/25 00:30:46;;;;;;;1.10;1.00;;;13.10;85.30;;;;;;4971864;28;20487;-81
2022/05/25 00:33:13;;;;;;;1.13;0.88;;;13.10;85.30;;;;;;4975552;28;20604;-82
2022/05/25 00:35:39;;;;;;;0.97;0.80;;;13.10;85.40;;;;;;5003706;28;20061;-82
2022/05/25 00:38:07;;;;;;;1.77;0.80;;;13.00;85.40;;;;;;5011175;28;20037;-82
2022/05/25 00:40:40;;;;;;;1.98;0.80;;;13.00;85.40;;;;;;5009554;28;20037;-82
2022/05/25 00:43:07;;;;;;;0.90;0.70;;;13.00;85.30;;;;;;4968659;28;20266;-82
2022/05/25 00:45:42;;;;;;;1.25;1.00;;;13.00;85.30;;;;;;4987171;28;20025;-82
2022/05/25 00:48:09;;;;;;;1.50;0.80;;;12.90;85.20;;;;;;5003369;28;20303;-82
2022/05/25 00:51:35;;;;;;;1.00;0.80;;;12.90;85.40;;;;;;5004328;28;20037;-82
2022/05/25 00:53:29;;;;;;;1.80;0.90;;;12.90;85.50;;;;;;4994990;28;20034;-82
2022/05/25 00:55:55;;;;;;;1.00;0.80;;;12.80;85.60;;;;;;5000877;28;20474;-82
2022/05/25 00:58:22;;;;;;;1.08;0.80;;;12.80;85.70;;;;;;5012019;28;20266;-81
2022/05/25 01:00:47;;;;;;;2.17;0.95;;;12.80;85.80;;;;;;4997932;28;20464;-79
2022/05/25 01:03:13;;;;;;;1.30;0.80;;;12.80;85.90;;;;;;4976669;28;20041;-79
2022/05/25 01:05:44;;;;;;;1.55;0.90;;;12.80;85.90;;;;;;5000817;28;20030;-79
2022/05/25 01:08:20;;;;;;;0.95;0.77;;;12.70;85.90;;;;;;5012487;28;20045;-79
2022/05/25 01:11:07;;;;;;;1.08;0.93;;;12.70;86.30;;;;;;5022399;28;20029;-80
2022/05/25 01:13:33;;;;;;;1.17;0.90;;;12.70;86.40;;;;;;4991264;28;20534;-80
2022/05/25 01:16:12;;;;;;;1.00;0.90;;;12.70;86.90;;;;;;4976195;28;20376;-79
2022/05/25 01:18:41;;;;;;;1.85;0.88;;;12.70;87.00;;;;;;4982132;28;20025;-80
2022/05/25 01:21:25;;;;;;;2.13;0.90;;;12.70;87.40;;;;;;4988661;28;20200;-80
2022/05/25 01:24:14;;;;;;;1.48;0.70;;;12.80;87.30;;;;;;5006497;28;20095;-79
2022/05/25 01:27:26;;;;;;;0.73;0.73;;;12.80;87.10;;;;;;5009829;28;20069;-80
2022/05/25 01:30:04;;;;;;;1.50;0.80;;;12.80;87.10;;;;;;4992144;28;20032;-81
2022/05/25 01:32:32;;;;;;;1.45;0.90;;;12.80;87.70;;;;;;4992150;28;20041;-81
2022/05/25 01:35:20;;;;;;;1.67;0.90;;;12.80;88.10;;;;;;4970584;28;20030;-80
2022/05/25 01:37:58;;;;;;;1.00;0.82;;;12.80;87.60;;;;;;5001101;28;20062;-79
2022/05/25 01:40:30;;;;;;;1.15;0.80;;;12.80;88.20;;;;;;5012508;28;20041;-80
2022/05/25 01:43:20;;;;;;;1.20;0.83;;;12.80;88.10;;;;;;5017793;28;20457;-80
2022/05/25 01:46:02;;;;;;;1.10;0.68;;;12.80;87.90;;;;;;5009719;28;20040;-80
2022/05/25 01:48:29;;;;;;;1.55;0.70;;;12.80;87.60;;;;;;5004538;28;20022;-80
2022/05/25 01:51:06;;;;;;;1.55;0.90;;;12.80;87.90;;;;;;4984165;28;20041;-80
2022/05/25 01:53:37;;;;;;;1.70;0.80;;;12.80;87.60;;;;;;4994924;28;20029;-80
2022/05/25 01:56:07;;;;;;;1.23;0.80;;;12.80;87.70;;;;;;4995952;28;20584;-79
2022/05/25 01:58:37;;;;;;;1.00;0.70;;;12.80;87.70;;;;;;5015905;28;20101;-79
2022/05/25 02:01:06;;;;;;;1.77;0.93;;;12.80;87.90;;;;;;5001008;28;20064;-80
2022/05/25 02:06:37;;;;;;;1.02;0.90;;;12.70;87.70;;;;;;5011906;28;20506;-80
2022/05/25 02:09:18;;;;;;;1.70;0.73;;;12.70;87.40;;;;;;4995206;28;20034;-80
2022/05/25 02:11:52;;;;;;;1.73;0.80;;;12.70;87.70;;;;;;5012840;28;20497;-80
2022/05/25 02:14:46;;;;;;;1.38;0.90;;;12.70;87.60;;;;;;4995794;28;20033;-79
2022/05/25 02:17:37;;;;;;;1.90;0.90;;;12.70;87.40;;;;;;4986611;28;20483;-79
2022/05/25 02:20:40;;;;;;;1.15;0.70;;;12.60;87.30;;;;;;4999974;28;20541;-80
2022/05/25 02:23:20;;;;;;;1.00;0.80;;;12.60;87.40;;;;;;4996277;28;20038;-79
2022/05/25 02:25:53;;;;;;;2.22;1.00;;;12.60;87.60;;;;;;4998788;28;20512;-79
2022/05/25 02:28:35;;;;;;;1.55;0.80;;;12.60;87.70;;;;;;5004856;28;20481;-79
2022/05/25 02:31:03;;;;;;;1.23;0.80;;;12.60;87.60;;;;;;4993676;28;20044;-79
2022/05/25 02:33:37;;;;;;;1.65;0.90;;;12.50;87.80;;;;;;4990157;28;20072;-79
2022/05/25 02:36:04;;;;;;;1.57;0.80;;;12.50;87.80;;;;;;5008720;28;20144;-79
2022/05/25 02:38:30;;;;;;;1.13;0.90;;;12.50;87.90;;;;;;5021097;28;20124;-79
2022/05/25 02:41:06;;;;;;;1.30;1.00;;;12.50;88.00;;;;;;5015983;28;20040;-79
2022/05/25 02:43:35;;;;;;;1.60;1.00;;;12.50;87.90;;;;;;4990428;28;20025;-79
2022/05/25 02:46:01;;;;;;;1.10;0.80;;;12.40;88.00;;;;;;5000636;28;20029;-79
2022/05/25 02:48:26;;;;;;;2.63;1.08;;;12.40;88.10;;;;;;5003071;28;20278;-80
2022/05/25 02:50:52;;;;;;;2.47;0.90;;;12.40;88.10;;;;;;5009604;28;20106;-80
2022/05/25 02:53:20;;;;;;;1.70;1.10;;;12.40;88.30;;;;;;5006861;28;20369;-80
2022/05/25 02:55:46;;;;;;;2.58;1.00;;;12.40;88.50;;;;;;5013586;28;20117;-80
2022/05/25 02:58:11;;;;;;;1.90;0.93;;;12.40;88.60;;;;;;4986294;28;20061;-79
2022/05/25 03:00:37;;;;;;;1.67;0.98;;;12.40;89.40;;;;;;4991816;28;20699;-80
2022/05/25 03:03:02;;;;;;;2.27;0.97;;;12.40;88.80;;;;;;4984338;28;20535;-79
2022/05/25 03:05:28;;;;;;;1.85;1.00;;;12.40;88.80;;;;;;4980916;28;20250;-80
2022/05/25 03:07:54;;;;;;;1.07;0.80;;;12.40;89.60;;;;;;5006897;28;20025;-80
2022/05/25 03:10:19;;;;;;;3.37;1.20;;;12.40;88.80;;;;;;4994908;28;20066;-79
2022/05/25 03:12:45;;;;;;;2.00;1.10;;;12.40;88.90;;;;;;4976578;28;20086;-79
2022/05/25 03:15:11;;;;;;;1.97;1.00;;;12.40;88.90;;;;;;5021071;28;20034;-80
2022/05/25 03:17:36;;;;;;;2.03;1.00;;;12.30;88.90;;;;;;4995265;28;20100;-79
2022/05/25 03:20:03;;;;;;;1.77;1.20;;;12.30;89.00;;;;;;4983845;28;20031;-80
2022/05/25 03:22:28;;;;;;;1.88;0.93;;;12.30;89.00;;;;;;4967750;28;20244;-79
2022/05/25 03:24:54;;;;;;;1.70;1.10;;;12.30;89.00;;;;;;4999980;28;20037;-79
2022/05/25 03:27:20;;;;;;;2.20;0.80;;;12.30;89.00;;;;;;4995051;28;20296;-80
2022/05/25 03:29:45;;;;;;;1.37;1.00;;;12.30;88.90;;;;;;4985509;28;20121;-79
2022/05/25 03:32:12;;;;;;;2.47;1.00;;;12.30;88.80;;;;;;4981047;28;20037;-79
2022/05/25 03:34:37;;;;;;;2.55;1.00;;;12.30;88.90;;;;;;4979951;28;20324;-79
2022/05/25 03:37:03;;;;;;;1.20;1.00;;;12.30;88.90;;;;;;4973852;28;20026;-80
2022/05/25 03:39:29;;;;;;;1.88;0.80;;;12.30;89.00;;;;;;4994319;28;20065;-79
2022/05/25 03:42:02;;;;;;;2.30;1.08;;;12.20;89.10;;;;;;4996336;28;20037;-79
2022/05/25 03:44:28;;;;;;;1.93;1.10;;;12.20;89.10;;;;;;4980773;28;20168;-79
2022/05/25 03:46:54;;;;;;;3.78;1.10;;;12.20;89.50;;;;;;5014241;28;20031;-80
2022/05/25 03:49:20;;;;;;;1.70;1.20;;;12.20;89.60;;;;;;4996894;28;20150;-80
2022/05/25 03:51:46;;;;;;;2.30;1.30;;;12.20;89.70;;;;;;4984497;28;20273;-80
2022/05/25 03:54:12;;;;;;;2.13;1.30;;;12.20;89.80;;;;;;5003552;28;20034;-79
2022/05/25 03:56:38;;;;;;;1.60;1.05;;;12.20;90.00;;;;;;4993509;28;20551;-80
2022/05/25 03:59:04;;;;;;;2.67;1.25;;;12.20;90.10;;;;;;5004464;28;20116;-79
2022/05/25 04:01:32;;;;;;;1.80;1.00;;;12.30;90.10;;;;;;5007094;28;20049;-79
2022/05/25 04:03:58;;;;;;;2.20;1.20;;;12.30;90.20;;;;;;4996069;28;20061;-79
2022/05/25 04:06:25;;;;;;;2.75;1.20;;;12.30;90.20;;;;;;5009063;28;20155;-81
2022/05/25 04:08:51;;;;;;;2.50;1.05;;;12.30;90.30;;;;;;4995843;28;20117;-80
2022/05/25 04:11:17;;;;;;;2.30;1.10;;;12.30;90.30;;;;;;4994718;28;20132;-80
2022/05/25 04:13:42;;;;;;;2.03;1.10;;;12.30;90.40;;;;;;5010233;28;20056;-80
2022/05/25 04:16:08;;;;;;;2.60;1.30;;;12.40;90.50;;;;;;5014916;28;20041;-80
2022/05/25 04:18:34;;;;;;;3.13;1.20;;;12.40;90.50;;;;;;5026254;28;20644;-80
2022/05/25 04:20:59;;;;;;;2.73;1.20;;;12.40;90.40;;;;;;4993198;28;20099;-80
2022/05/25 04:23:27;;;;;;;1.67;1.10;;;12.40;90.50;;;;;;4994638;28;22033;-80
2022/05/25 04:25:54;;;;;;;2.00;1.08;;;12.50;90.50;;;;;;5001627;28;20322;-81
2022/05/25 04:28:20;;;;;;;3.00;1.30;;;12.50;90.50;;;;;;4986482;28;20464;-81
2022/05/25 04:30:46;;;;;;;1.83;1.00;;;12.50;90.50;;;;;;4990603;28;20040;-80
2022/05/25 04:33:11;;;;;;;1.45;1.00;;;12.50;90.50;;;;;;5004362;28;20200;-80
2022/05/25 04:35:37;;;;;;;1.90;1.20;;;12.50;90.50;;;;;;4986163;28;20706;-79
2022/05/25 04:38:03;;;;;;;3.00;1.10;;;12.50;90.50;;;;;;5017394;28;20033;-81
2022/05/25 04:40:31;;;;;;;2.10;1.08;;;12.60;90.60;;;;;;4978377;28;20595;-81
2022/05/25 04:42:59;;;;;;;2.13;0.93;;;12.60;90.60;;;;;;5011361;28;20033;-81
2022/05/25 04:45:26;;;;;;;2.17;1.10;;;12.60;90.70;;;;;;5001832;28;20407;-80
2022/05/25 04:47:52;;;;;;;2.63;1.02;;;12.60;90.70;;;;;;5018268;28;20546;-81
2022/05/25 04:50:21;;;;;;;1.88;1.10;;;12.60;90.70;;;;;;4998000;28;20457;-80
2022/05/25 04:52:47;;;;;;;5.32;1.33;;;12.60;90.70;;;;;;5005833;28;20049;-81
2022/05/25 04:57:19;;;;;;;3.60;1.10;;;12.70;90.80;;;;;;5002967;28;20486;-80
2022/05/25 04:57:59;;;;;;;3.70;1.02;;;12.70;90.80;;;;;;5003934;28;20072;-80
2022/05/25 05:00:25;;;;;;;2.35;1.17;;;12.80;90.80;;;;;;4979546;28;20045;-81
2022/05/25 05:02:51;;;;;;;1.70;1.00;;;12.80;90.90;;;;;;4995749;28;20034;-80
2022/05/25 05:05:17;;;;;;;2.20;1.20;;;12.70;90.90;;;;;;4972004;28;20030;-81
2022/05/25 05:07:44;;;;;;;2.28;1.30;;;12.80;91.00;;;;;;5001601;28;20026;-82
2022/05/25 05:10:12;;;;;;;2.03;1.10;;;12.80;91.00;;;;;;5010903;28;20128;-82
2022/05/25 05:12:39;;;;;;;3.03;1.20;;;12.80;91.00;;;;;;4981848;28;20453;-82
2022/05/25 05:15:05;;;;;;;4.17;1.40;;;12.90;91.10;;;;;;5013718;28;20045;-80
2022/05/25 05:17:30;;;;;;;2.78;1.35;;;12.90;91.10;;;;;;4983207;28;20030;-79
2022/05/25 05:19:56;;;;;;;2.92;1.27;;;12.90;91.20;;;;;;4977025;28;20091;-81
2022/05/25 05:22:22;;;;;;;2.63;1.20;;;13.00;91.30;;;;;;5004781;28;20115;-79
2022/05/25 05:24:48;;;;;;;2.13;1.30;;;13.00;91.30;;;;;;5000286;28;20184;-80
2022/05/25 05:27:14;;;;;;;3.00;1.30;;;13.10;91.30;;;;;;4992646;28;20445;-80
2022/05/25 05:29:39;;;;;;;1.75;1.17;;;13.10;91.30;;;;;;4996047;28;20220;-80
2022/05/25 05:32:05;;;;;;;3.22;1.00;;;13.20;91.40;;;;;;5010352;28;20032;-80
2022/05/25 05:34:31;;;;;;;3.60;1.30;;;13.20;91.50;;;;;;4999572;28;20673;-79
2022/05/25 05:37:02;;;;;;;3.50;1.30;;;13.30;91.40;;;;;;4972260;28;20539;-80
2022/05/25 05:39:34;;;;;;;2.70;1.25;;;13.30;91.40;;;;;;5003592;28;20092;-79
2022/05/25 05:42:05;;;;;;;1.77;1.10;;;13.40;91.30;;;;;;4988867;28;20049;-80
2022/05/25 05:44:41;;;;;;;3.63;1.30;;;13.40;91.40;;;;;;4986121;28;20034;-79
2022/05/25 05:47:11;;;;;;;3.22;1.40;;;13.50;91.40;;;;;;4997821;28;20072;-81
2022/05/25 05:49:38;;;;;;;2.83;1.27;;;13.50;91.50;;;;;;5006345;28;20315;-80
2022/05/25 05:52:04;;;;;;;4.10;1.30;;;13.60;91.50;;;;;;5001212;28;20385;-80
2022/05/25 05:54:30;;;;;;;2.70;1.30;;;13.70;91.60;;;;;;4997268;28;20894;-80
2022/05/25 05:56:56;;;;;;;2.80;1.27;;;13.70;91.60;;;;;;5015302;28;20048;-79
2022/05/25 05:59:22;;;;;;;3.60;1.42;;;13.80;91.70;;;;;;4986220;28;20124;-82
2022/05/25 06:01:48;;;;;;;2.53;1.30;;;13.80;91.70;;;;;;5000194;28;20064;-80
2022/05/25 06:04:13;;;;;;;3.65;1.52;;;13.90;91.70;;;;;;5005587;28;20084;-80
2022/05/25 06:06:39;;;;;;;3.80;1.50;;;13.90;91.70;;;;;;4976916;28;20521;-81
2022/05/25 06:09:05;;;;;;;2.97;1.55;;;14.00;91.60;;;;;;5006166;28;20043;-82
2022/05/25 06:11:32;;;;;;;2.87;1.33;;;14.10;91.60;;;;;;5005903;28;20041;-81
2022/05/25 06:13:58;;;;;;;2.83;1.58;;;14.20;91.70;;;;;;4969434;28;20042;-81
2022/05/25 06:19:26;;;;;;;3.03;1.52;;;14.30;91.70;;;;;;5008440;28;20525;-81
2022/05/25 06:21:56;;;;;;;2.00;1.38;;;14.30;91.50;;;;;;5012497;28;20045;-81
2022/05/25 06:24:21;;;;;;;2.53;1.33;;;14.40;91.60;;;;;;4984328;28;20255;-79
2022/05/25 06:26:47;;;;;;;4.13;1.50;;;14.40;91.70;;;;;;4996094;28;20155;-81
2022/05/25 06:29:16;;;;;;;3.43;1.40;;;14.50;91.80;;;;;;5009188;28;20034;-80
2022/05/25 06:31:42;;;;;;;3.05;1.60;;;14.60;91.70;;;;;;5013922;28;20048;-81
2022/05/25 06:34:07;;;;;;;2.70;1.43;;;14.60;91.70;;;;;;4998753;28;20034;-81
2022/05/25 06:36:33;;;;;;;3.47;1.80;;;14.70;91.80;;;;;;5000230;28;20421;-80
2022/05/25 06:38:59;;;;;;;4.37;1.80;;;14.80;91.90;;;;;;4981254;28;20040;-80
2022/05/25 06:41:25;;;;;;;3.22;1.58;;;14.90;91.90;;;;;;4989485;28;20418;-81
2022/05/25 06:43:51;;;;;;;3.58;1.70;;;14.90;91.80;;;;;;5012513;28;20022;-80
2022/05/25 06:46:21;;;;;;;2.83;1.30;;;14.90;91.80;;;;;;4970730;28;20081;-81
2022/05/25 06:48:54;;;;;;;6.05;1.50;;;15.10;91.80;;;;;;5005554;28;20038;-80
2022/05/25 06:51:23;;;;;;;3.47;1.70;;;15.10;91.60;;;;;;4999801;28;20128;-80
2022/05/25 06:53:49;;;;;;;2.93;1.50;;;15.20;91.70;;;;;;5000378;28;20271;-81
2022/05/25 06:56:19;;;;;;;3.05;1.33;;;15.30;91.80;;;;;;4997447;28;20490;-80
2022/05/25 06:58:45;;;;;;;2.22;1.50;;;15.40;91.80;;;;;;5012163;28;20041;-81
2022/05/25 07:01:11;;;;;;;3.40;1.40;;;15.50;91.90;;;;;;4986224;28;20036;-81
2022/05/25 07:03:38;;;;;;;4.23;1.40;;;15.50;91.90;;;;;;4987652;28;20029;-81
2022/05/25 07:06:05;;;;;;;4.03;1.50;;;15.70;91.70;;;;;;5019214;28;20370;-81
2022/05/25 07:08:32;;;;;;;5.07;1.65;;;15.70;91.70;;;;;;4991834;28;20757;-80
2022/05/25 07:10:58;;;;;;;3.28;1.55;;;15.80;91.80;;;;;;4992768;28;20402;-80
2022/05/25 07:13:25;;;;;;;3.08;1.48;;;15.90;91.80;;;;;;5016118;28;20044;-80
2022/05/25 07:15:56;;;;;;;3.17;1.40;;;15.90;91.60;;;;;;5010414;28;20172;-81
2022/05/25 07:18:22;;;;;;;3.67;1.37;;;16.10;91.60;;;;;;4999465;28;20479;-81
2022/05/25 07:20:48;;;;;;;1.45;1.30;;;16.10;91.80;;;;;;4997926;28;20022;-81
2022/05/25 07:23:13;;;;;;;1.90;1.40;;;16.20;91.70;;;;;;4995139;28;20036;-81
2022/05/25 07:25:39;;;;;;;3.07;1.33;;;16.30;91.60;;;;;;4982193;28;20030;-82
2022/05/25 07:28:05;;;;;;;2.43;1.30;;;16.40;91.50;;;;;;5024814;28;20025;-80
2022/05/25 07:30:30;;;;;;;3.00;1.30;;;16.50;91.70;;;;;;4990559;28;20044;-81
2022/05/25 07:32:57;;;;;;;3.70;1.30;;;16.60;91.60;;;;;;5003139;28;20038;-80
2022/05/25 07:35:23;;;;;;;3.30;1.40;;;16.70;91.60;;;;;;5012780;28;20512;-80
2022/05/25 07:37:52;;;;;;;2.42;1.30;;;16.80;91.90;;;;;;5013300;28;20041;-81
2022/05/25 07:40:23;;;;;;;2.28;1.30;;;16.90;92.30;;;;;;4989109;28;20501;-80
2022/05/25 07:42:55;;;;;;;3.40;1.40;;;17.00;92.30;;;;;;4996837;28;20049;-82
2022/05/25 07:45:23;;;;;;;2.77;1.33;;;17.30;92.40;;;;;;5020931;28;20053;-80
2022/05/25 07:47:51;;;;;;;1.98;1.10;;;17.50;92.30;;;;;;4997173;28;20512;-81
2022/05/25 07:50:17;;;;;;;3.55;1.40;;;17.80;93.00;;;;;;4987203;28;20474;-81
2022/05/25 07:52:43;;;;;;;1.95;1.10;;;18.00;93.20;;;;;;5010444;28;20628;-81
2022/05/25 07:55:11;;;;;;;2.70;1.02;;;18.30;93.10;;;;;;5002137;28;20036;-80
2022/05/25 07:57:38;;;;;;;2.30;1.10;;;18.60;92.60;;;;;;4998425;28;20057;-81
2022/05/25 08:00:06;;;;;;;2.03;1.05;;;18.90;92.70;;;;;;4999390;28;20046;-82
2022/05/25 08:08:14;;;;;;;3.33;1.20;;;19.90;92.90;;;;;;5016118;28;20030;-80
2022/05/25 08:10:42;;;;;;;2.77;1.27;;;20.30;92.80;;;;;;5005342;28;20060;-81
2022/05/25 08:13:13;;;;;;;1.15;1.00;;;20.70;91.90;;;;;;5003239;28;20033;-81
2022/05/25 08:15:42;;;;;;;1.63;0.90;;;20.90;90.60;;;;;;5013739;28;20034;-81
2022/05/25 08:18:09;;;;;;;2.40;0.88;;;21.10;90.90;;;;;;4996800;28;20432;-80
2022/05/25 08:20:36;;;;;;;1.08;0.90;;;21.40;91.30;;;;;;4981022;28;21835;-79
2022/05/25 08:23:07;;;;;;;2.90;0.90;;;21.60;91.50;;;;;;5002482;28;20072;-81
2022/05/25 08:25:34;;;;;;;2.72;1.10;;;22.00;91.40;;;;;;5006599;28;20091;-80
2022/05/25 08:28:00;;;;;;;1.70;0.93;;;22.40;92.20;;;;;;4988880;28;20062;-81
2022/05/25 08:30:27;;;;;;;2.58;1.13;;;22.90;91.90;;;;;;4995387;28;20499;-81
2022/05/25 08:32:53;;;;;;;2.08;0.95;;;23.30;90.20;;;;;;4988434;28;20148;-81
2022/05/25 08:35:19;;;;;;;1.87;0.90;;;23.60;90.10;;;;;;4986348;28;20542;-81
2022/05/25 08:37:45;;;;;;;2.55;1.00;;;24.00;87.40;;;;;;4994526;28;20029;-81
2022/05/25 08:40:17;;;;;;;3.17;0.80;;;24.20;85.90;;;;;;4991013;28;20318;-82
2022/05/25 08:43:11;;;;;;;1.15;0.85;;;24.40;84.70;;;;;;4980137;28;21110;-79
2022/05/25 08:45:44;;;;;;;2.13;0.90;;;24.60;78.50;;;;;;5010415;28;20402;-81
2022/05/25 08:48:13;;;;;;;2.67;0.87;;;24.70;81.00;;;;;;5007701;28;20137;-80
2022/05/25 08:50:40;;;;;;;2.65;0.80;;;24.80;82.80;;;;;;4985757;28;20423;-82
2022/05/25 08:53:09;;;;;;;1.60;0.70;;;25.00;84.70;;;;;;5003311;28;20094;-79
2022/05/25 08:55:56;;;;;;;1.70;0.93;;;25.10;84.30;;;;;;5002595;28;20674;-80
2022/05/25 08:58:27;;;;;;;2.20;0.80;;;25.40;81.80;;;;;;4998051;28;20042;-81
2022/05/25 09:00:54;;;;;;;1.60;0.97;;;25.60;82.30;;;;;;5010899;28;20041;-82
2022/05/25 09:03:35;;;;;;;1.55;0.90;;;25.70;82.70;;;;;;5002598;28;20052;-80
2022/05/25 09:06:13;;;;;;;3.17;1.10;;;25.90;76.50;;;;;;4988206;28;20024;-82
2022/05/25 09:08:39;;;;;;;2.35;1.05;;;26.00;82.20;;;;;;5003604;28;20156;-82
2022/05/25 09:11:10;;;;;;;1.77;0.80;;;26.20;81.40;;;;;;4981616;28;20525;-82
2022/05/25 09:13:41;;;;;;;1.30;0.85;;;26.30;80.80;;;;;;4970710;28;20050;-80
2022/05/25 09:16:18;;;;;;;1.73;0.77;;;26.30;78.80;;;;;;5008842;28;20350;-81
2022/05/25 09:18:49;;;;;;;1.60;1.00;;;26.50;80.40;;;;;;4994276;28;20247;-81
2022/05/25 09:21:20;;;;;;;1.83;1.00;;;26.60;77.70;;;;;;4996719;28;20128;-81
2022/05/25 09:23:46;;;;;;;1.70;0.80;;;26.70;75.80;;;;;;4981141;28;20072;-82
2022/05/25 09:26:13;;;;;;;1.70;0.70;;;26.80;78.10;;;;;;5011823;28;20037;-81
2022/05/25 09:28:42;;;;;;;0.98;0.60;;;26.80;78.50;;;;;;4989408;28;20033;-82
2022/05/25 09:31:12;;;;;;;1.45;0.70;;;26.70;72.50;;;;;;5003239;28;20030;-80
2022/05/25 09:34:00;;;;;;;0.70;0.70;;;26.50;70.30;;;;;;4987287;28;20049;-82
2022/05/25 09:36:42;;;;;;;0.82;0.70;;;26.40;66.10;;;;;;5000614;28;20029;-81
2022/05/25 09:39:36;;;;;;;0.80;0.57;;;26.40;71.20;;;;;;5008984;28;20060;-82
2022/05/25 09:42:05;;;;;;;1.35;0.60;;;26.50;72.20;;;;;;4993798;28;20078;-82
2022/05/25 09:44:32;;;;;;;1.48;0.90;;;26.70;81.20;;;;;;5014526;28;20045;-80
2022/05/25 09:47:12;;;;;;;1.87;0.80;;;26.90;82.60;;;;;;5010692;28;20158;-81
2022/05/25 09:49:45;;;;;;;3.33;1.15;;;27.20;72.80;;;;;;5030587;28;20052;-82
2022/05/25 09:52:15;;;;;;;3.83;0.75;;;27.30;72.90;;;;;;5022546;28;20060;-81
2022/05/25 09:54:49;;;;;;;2.70;0.85;;;27.20;74.30;;;;;;4994093;28;22179;-81
2022/05/25 09:57:31;;;;;;;1.30;0.70;;;27.20;72.90;;;;;;5016430;28;20057;-80
2022/05/25 10:00:06;;;;;;;1.23;0.77;;;27.10;73.90;;;;;;5026710;28;20037;-82
2022/05/25 10:02:37;;;;;;;0.95;0.70;;;27.00;76.30;;;;;;5006949;28;20370;-81
2022/05/25 10:05:13;;;;;;;1.33;0.75;;;27.00;73.10;;;;;;5041820;28;20037;-81
2022/05/25 10:07:53;;;;;;;1.10;0.90;;;26.90;70.90;;;;;;5015174;28;20099;-81
2022/05/25 10:10:32;;;;;;;1.13;0.82;;;26.80;70.70;;;;;;4999529;28;20437;-81
2022/05/25 10:13:15;;;;;;;1.80;0.70;;;26.60;67.50;;;;;;5018461;28;20041;-81
2022/05/25 10:15:41;;;;;;;1.13;0.73;;;26.50;72.70;;;;;;4988946;28;20697;-82
2022/05/25 10:18:14;;;;;;;1.20;0.70;;;26.40;75.70;;;;;;4985194;28;20468;-81
2022/05/25 10:20:43;;;;;;;1.23;0.80;;;26.30;71.60;;;;;;5023106;28;20064;-82
2022/05/25 10:23:19;;;;;;;1.98;0.70;;;26.30;71.30;;;;;;4994553;28;20033;-81
2022/05/25 10:25:49;;;;;;;2.20;0.80;;;26.20;71.60;;;;;;5033429;28;20044;-81
2022/05/25 10:28:23;;;;;;;0.93;0.75;;;26.10;73.90;;;;;;5005889;28;20046;-81
2022/05/25 10:36:57;;;;;;;1.38;0.70;;;26.30;73.50;;;;;;5032923;28;20037;-81
2022/05/25 10:39:28;;;;;;;1.17;0.60;;;26.50;73.70;;;;;;5013075;28;20633;-81
2022/05/25 10:42:01;;;;;;;1.45;0.80;;;26.70;72.20;;;;;;5003724;28;20029;-80
2022/05/25 10:44:34;;;;;;;0.75;0.75;;;26.90;71.00;;;;;;5020140;28;20064;-82
2022/05/25 10:47:00;;;;;;;1.10;0.80;;;27.00;70.30;;;;;;5005347;28;20034;-80
2022/05/25 10:49:34;;;;;;;1.40;0.83;;;27.20;75.60;;;;;;4980894;28;20371;-80
2022/05/25 10:52:27;;;;;;;1.17;0.90;;;27.40;73.80;;;;;;4989559;28;20033;-82
2022/05/25 10:54:55;;;;;;;0.80;0.80;;;27.60;68.10;;;;;;4993967;28;20091;-80
2022/05/25 10:57:45;;;;;;;1.25;0.80;;;27.80;76.90;;;;;;5002686;28;20068;-80
2022/05/25 11:00:45;;;;;;;0.80;0.63;;;28.00;69.50;;;;;;5002813;28;20451;-81
2022/05/25 11:03:31;;;;;;;1.05;0.70;;;28.30;71.50;;;;;;4978204;28;20038;-82
2022/05/25 11:06:09;;;;;;;1.48;0.75;;;28.60;70.90;;;;;;4965259;28;20060;-81
2022/05/25 11:08:53;;;;;;;1.45;0.80;;;28.80;74.50;;;;;;4976611;28;20122;-83
2022/05/25 11:11:19;;;;;;;1.92;0.90;;;29.00;69.90;;;;;;4984864;28;20124;-81
2022/05/25 11:13:51;;;;;;;1.20;0.70;;;28.90;71.90;;;;;;4970332;28;20508;-81
2022/05/25 11:16:50;;;;;;;1.58;0.80;;;28.80;68.90;;;;;;4980032;28;20041;-80
2022/05/25 11:19:25;;;;;;;1.25;0.70;;;28.60;62.60;;;;;;4984359;28;20045;-81
2022/05/25 11:22:09;;;;;;;1.70;0.80;;;28.50;69.30;;;;;;4988694;28;20244;-80
2022/05/25 11:25:16;;;;;;;1.10;0.70;;;28.40;63.70;;;;;;4984670;28;20037;-82
2022/05/25 11:27:48;;;;;;;1.15;0.80;;;28.40;64.30;;;;;;4985644;28;20274;-82
2022/05/25 11:30:28;;;;;;;1.58;0.70;;;28.40;69.50;;;;;;4990737;28;20125;-81
2022/05/25 11:33:22;;;;;;;1.23;0.60;;;28.40;63.90;;;;;;4987269;28;20644;-81
2022/05/25 11:36:06;;;;;;;2.13;2.00;;;28.20;60.40;;;;;;4955622;28;20707;-81
2022/05/25 11:38:51;;;;;;;1.65;0.70;;;27.90;59.60;;;;;;4995318;28;20133;-81
2022/05/25 11:41:56;;;;;;;0.65;0.65;;;27.60;63.20;;;;;;4991054;28;20045;-80
2022/05/25 11:44:30;;;;;;;1.42;0.70;;;27.50;55.30;;;;;;4965804;28;20100;-84
2022/05/25 11:47:16;;;;;;;1.83;0.80;;;27.30;60.80;;;;;;4972711;28;20048;-81
2022/05/25 11:50:00;;;;;;;0.77;0.70;;;27.00;59.90;;;;;;5005966;28;20205;-81
2022/05/25 11:52:54;;;;;;;1.25;0.80;;;26.80;59.60;;;;;;4992329;28;20128;-80
2022/05/25 11:55:24;;;;;;;1.30;0.70;;;26.70;56.50;;;;;;5008290;28;20133;-82
2022/05/25 11:58:18;;;;;;;0.55;0.55;;;26.70;64.10;;;;;;5004702;28;20052;-82
2022/05/25 12:01:17;;;;;;;1.52;0.70;;;26.70;60.50;;;;;;4994611;28;20393;-81
2022/05/25 12:04:10;;;;;;;1.40;0.73;;;26.70;56.00;;;;;;4997960;28;20414;-81
2022/05/25 12:06:44;;;;;;;1.20;0.70;;;26.50;54.40;;;;;;4986612;28;20608;-81
2022/05/25 12:09:28;;;;;;;0.98;0.70;;;26.30;63.40;;;;;;5013574;28;20465;-80
2022/05/25 12:12:13;;;;;;;1.20;0.80;;;26.10;59.80;;;;;;5031036;28;20575;-81
2022/05/25 12:15:05;;;;;;;0.77;0.68;;;26.20;67.70;;;;;;4997616;28;20262;-80
2022/05/25 12:17:48;;;;;;;1.40;0.80;;;26.30;62.00;;;;;;4987037;28;20052;-81
2022/05/25 12:20:22;;;;;;;1.73;0.70;;;26.30;62.10;;;;;;5016487;28;20059;-80
2022/05/25 12:22:54;;;;;;;1.13;0.82;;;26.30;60.20;;;;;;4979748;28;20489;-80
2022/05/25 12:25:21;;;;;;;0.93;0.70;;;26.00;58.50;;;;;;4994017;28;20112;-80
2022/05/25 12:27:52;;;;;;;0.90;0.60;;;25.80;61.30;;;;;;5013846;28;20111;-81
2022/05/25 12:30:30;;;;;;;1.63;0.77;;;25.60;62.60;;;;;;5005928;28;20037;-82
2022/05/25 12:33:00;;;;;;;1.15;0.80;;;25.60;60.30;;;;;;5005834;28;20045;-80
2022/05/25 12:35:29;;;;;;;1.60;0.80;;;25.40;61.20;;;;;;5006837;28;20748;-81
2022/05/25 12:37:56;;;;;;;3.13;0.68;;;25.40;62.70;;;;;;5012085;28;20113;-80
2022/05/25 12:40:30;;;;;;;0.68;0.57;;;25.40;65.10;;;;;;4987898;28;20037;-82
2022/05/25 12:42:56;;;;;;;1.83;0.63;;;25.40;62.30;;;;;;5012688;28;20167;-81
2022/05/25 12:48:33;;;;;;;1.45;0.70;;;25.40;59.70;;;;;;4982666;28;20525;-80
2022/05/25 12:51:26;;;;;;;1.90;0.70;;;25.40;62.50;;;;;;4994478;28;20250;-82
2022/05/25 12:53:55;;;;;;;3.15;0.80;;;25.30;62.00;;;;;;4997482;28;20041;-81
2022/05/25 12:56:23;;;;;;;1.50;0.77;;;25.40;65.00;;;;;;4987826;28;20048;-81
2022/05/25 12:58:52;;;;;;;1.52;0.70;;;25.50;63.10;;;;;;4990208;28;20405;-80
2022/05/25 13:01:23;;;;;;;1.83;0.70;;;25.50;65.20;;;;;;5022598;28;20045;-81
2022/05/25 13:03:49;;;;;;;1.25;0.70;;;25.60;62.10;;;;;;4992705;28;20446;-81
2022/05/25 13:06:21;;;;;;;1.45;0.63;;;25.50;64.70;;;;;;4990127;28;20099;-81
2022/05/25 13:08:47;;;;;;;1.23;0.70;;;25.40;61.60;;;;;;4990325;28;20065;-81
2022/05/25 13:11:48;;;;;;;0.95;0.50;;;25.30;63.30;;;;;;4958670;28;20226;-80
2022/05/25 13:14:16;;;;;;;2.22;0.63;;;25.10;58.60;;;;;;4984074;28;20532;-79
2022/05/25 13:16:48;;;;;;;1.37;0.70;;;24.90;63.60;;;;;;4994426;28;20059;-81
2022/05/25 13:19:18;;;;;;;2.58;0.70;;;24.80;63.80;;;;;;5008434;28;20184;-81
2022/05/25 13:22:09;;;;;;;1.38;0.70;;;24.80;64.50;;;;;;5009799;28;20447;-79
2022/05/25 13:24:49;;;;;;;1.20;0.70;;;24.90;66.70;;;;;;4991502;28;20033;-81
2022/05/25 13:27:23;;;;;;;0.90;0.68;;;25.00;63.30;;;;;;4994258;28;20564;-79
2022/05/25 13:30:05;;;;;;;0.97;0.70;;;25.10;66.20;;;;;;4992205;28;20514;-80
2022/05/25 13:33:01;;;;;;;0.93;0.60;;;25.10;62.90;;;;;;5007465;28;20422;-79